createdAt,value
2018-05-18T00:00:16.076Z,8.30
2018-05-18T00:02:43.520Z,12.00
2018-05-18T00:05:10.996Z,12.27
2018-05-18T00:07:38.455Z,9.30
2018-05-18T00:10:05.908Z,11.30
2018-05-18T00:12:33.368Z,11.45
2018-05-18T00:15:00.825Z,13.95
2018-05-18T00:17:28.285Z,12.90
2018-05-18T00:19:56.604Z,8.88
2018-05-18T00:22:24.825Z,9.85
2018-05-18T00:24:52.309Z,12.50
2018-05-18T00:27:20.209Z,8.40
2018-05-18T00:29:47.693Z,12.65
2018-05-18T00:32:15.144Z,9.00
2018-05-18T00:34:42.666Z,12.68
2018-05-18T00:37:10.887Z,9.48
2018-05-18T00:39:38.357Z,12.88
2018-05-18T00:42:05.838Z,13.43
2018-05-18T00:44:33.320Z,10.40
2018-05-18T00:47:01.624Z,12.50
2018-05-18T00:49:29.048Z,12.20
2018-05-18T00:51:57.289Z,7.82
2018-05-18T00:54:24.769Z,11.32
2018-05-18T00:56:52.219Z,8.27
2018-05-18T00:59:20.137Z,8.52
2018-05-18T01:01:47.604Z,10.15
2018-05-18T01:04:15.105Z,13.57
2018-05-18T01:06:42.561Z,10.73
2018-05-18T01:09:10.041Z,11.30
2018-05-18T01:11:38.282Z,8.68
2018-05-18T01:14:05.756Z,9.75
2018-05-18T01:16:33.204Z,10.77
2018-05-18T01:19:00.665Z,11.55
2018-05-18T01:21:28.120Z,9.68
2018-05-18T01:23:55.640Z,13.07
2018-05-18T01:26:23.093Z,11.65
2018-05-18T01:28:50.567Z,10.30
2018-05-18T01:31:18.044Z,12.88
2018-05-18T01:33:45.537Z,10.05
2018-05-18T01:36:13.777Z,10.82
2018-05-18T01:38:41.261Z,9.60
2018-05-18T01:41:09.512Z,10.55
2018-05-18T01:43:36.987Z,10.85
2018-05-18T01:46:04.448Z,11.00
2018-05-18T01:48:31.933Z,9.52
2018-05-18T01:50:59.396Z,9.82
2018-05-18T01:53:26.872Z,10.48
2018-05-18T01:55:54.363Z,9.85
2018-05-18T01:58:21.847Z,10.02
2018-05-18T02:00:50.063Z,9.57
2018-05-18T02:03:17.510Z,8.80
2018-05-18T02:05:44.990Z,9.60
2018-05-18T02:08:12.472Z,8.95
2018-05-18T02:10:39.932Z,12.43
2018-05-18T02:13:08.412Z,14.65
2018-05-18T02:15:35.868Z,12.73
2018-05-18T02:18:03.340Z,11.90
2018-05-18T02:20:30.792Z,14.02
2018-05-18T02:22:59.060Z,14.63
2018-05-18T02:25:26.543Z,16.15
2018-05-18T02:27:54.797Z,16.73
2018-05-18T02:30:22.260Z,11.68
2018-05-18T02:32:50.490Z,16.52
2018-05-18T02:35:17.960Z,15.07
2018-05-18T02:37:45.416Z,16.62
2018-05-18T02:40:12.872Z,19.35
2018-05-18T02:42:40.341Z,19.67
2018-05-18T02:45:07.839Z,22.77
2018-05-18T02:47:36.072Z,20.15
2018-05-18T02:50:03.555Z,19.48
2018-05-18T02:52:31.152Z,24.45
2018-05-18T02:54:58.531Z,22.65
2018-05-18T02:57:25.988Z,22.48
2018-05-18T02:59:53.463Z,22.95
2018-05-18T03:02:21.139Z,20.15
2018-05-18T03:04:48.608Z,27.70
2018-05-18T03:07:16.876Z,21.92
2018-05-18T03:09:44.341Z,20.40
2018-05-18T03:12:12.572Z,20.98
2018-05-18T03:14:40.036Z,23.52
2018-05-18T03:17:07.498Z,21.48
2018-05-18T03:19:34.984Z,25.50
2018-05-18T03:22:02.444Z,22.23
2018-05-18T03:24:30.692Z,22.90
2018-05-18T03:26:58.153Z,25.88
2018-05-18T03:29:25.960Z,25.58
2018-05-18T03:31:53.475Z,25.58
2018-05-18T03:34:20.961Z,29.58
2018-05-18T03:36:48.421Z,27.33
2018-05-18T03:39:16.655Z,27.02
2018-05-18T03:41:44.144Z,30.40
2018-05-18T03:44:12.375Z,31.12
2018-05-18T03:46:39.840Z,31.65
2018-05-18T03:49:07.309Z,35.60
2018-05-18T03:51:34.776Z,33.10
2018-05-18T03:54:02.244Z,36.20
2018-05-18T03:56:29.705Z,36.03
2018-05-18T03:58:57.196Z,37.85
2018-05-18T04:01:36.447Z,42.03
2018-05-18T04:04:15.851Z,40.40
2018-05-18T04:06:55.984Z,40.45
2018-05-18T04:09:23.467Z,42.33
2018-05-18T04:11:51.730Z,38.42
2018-05-18T04:14:19.968Z,37.97
2018-05-18T04:16:47.447Z,44.13
2018-05-18T04:19:14.934Z,44.38
2018-05-18T04:21:43.180Z,39.80
2018-05-18T04:24:10.646Z,41.35
2018-05-18T04:26:38.124Z,39.85
2018-05-18T04:29:06.376Z,38.58
2018-05-18T04:31:33.852Z,33.58
2018-05-18T04:34:02.084Z,45.10
2018-05-18T04:36:29.546Z,41.97
2018-05-18T04:38:57.004Z,40.70
2018-05-18T04:41:24.492Z,41.67
2018-05-18T04:43:52.747Z,42.28
2018-05-18T04:46:20.203Z,40.25
2018-05-18T04:48:47.664Z,40.67
2018-05-18T04:51:15.137Z,38.45
2018-05-18T04:53:43.368Z,46.60
2018-05-18T04:56:11.599Z,45.10
2018-05-18T04:58:39.832Z,42.85
2018-05-18T05:01:07.301Z,41.45
2018-05-18T05:03:34.817Z,42.30
2018-05-18T05:06:02.300Z,36.83
2018-05-18T05:08:29.773Z,39.60
2018-05-18T05:10:57.228Z,42.95
2018-05-18T05:13:24.687Z,36.28
2018-05-18T05:15:52.172Z,42.90
2018-05-18T05:18:20.419Z,41.95
2018-05-18T05:20:47.904Z,44.50
2018-05-18T05:23:16.139Z,40.92
2018-05-18T05:25:43.624Z,39.97
2018-05-18T05:28:11.101Z,40.85
2018-05-18T05:30:38.592Z,41.65
2018-05-18T05:33:06.052Z,36.92
2018-05-18T05:35:33.520Z,38.83
2018-05-18T05:38:00.975Z,45.12
2018-05-18T05:40:28.457Z,42.30
2018-05-18T05:42:55.912Z,37.83
2018-05-18T05:45:23.404Z,40.10
2018-05-18T05:47:51.667Z,43.40
2018-05-18T05:50:19.124Z,38.38
2018-05-18T05:52:47.437Z,38.63
2018-05-18T05:55:14.880Z,41.95
2018-05-18T05:57:42.341Z,36.65
2018-05-18T06:00:09.808Z,36.75
2018-05-18T06:02:37.298Z,34.35
2018-05-18T06:05:04.741Z,35.83
2018-05-18T06:07:32.211Z,28.23
2018-05-18T06:09:59.678Z,31.15
2018-05-18T06:12:27.132Z,34.65
2018-05-18T06:14:54.631Z,34.85
2018-05-18T06:17:22.855Z,33.17
2018-05-18T06:19:50.320Z,34.20
2018-05-18T06:22:17.772Z,36.88
2018-05-18T06:24:45.269Z,32.95
2018-05-18T06:27:14.271Z,38.13
2018-05-18T06:29:42.586Z,40.72
2018-05-18T06:32:10.038Z,35.78
2018-05-18T06:34:37.590Z,37.17
2018-05-18T06:37:05.033Z,35.95
2018-05-18T06:39:32.520Z,29.27
2018-05-18T06:41:59.993Z,40.50
2018-05-18T06:44:27.448Z,35.88
2018-05-18T06:46:54.958Z,32.00
2018-05-18T06:49:22.452Z,35.63
2018-05-18T06:51:49.939Z,34.70
2018-05-18T06:54:17.406Z,34.40
2018-05-18T06:56:44.887Z,35.53
2018-05-18T06:59:12.375Z,37.03
2018-05-18T07:01:39.848Z,34.15
2018-05-18T07:04:07.339Z,29.30
2018-05-18T07:06:34.791Z,31.05
2018-05-18T07:09:02.268Z,30.45
2018-05-18T07:11:29.732Z,34.90
2018-05-18T07:13:57.210Z,35.28
2018-05-18T07:16:24.729Z,36.70
2018-05-18T07:18:52.173Z,33.08
2018-05-18T07:21:19.636Z,32.70
2018-05-18T07:23:47.099Z,33.55
2018-05-18T07:26:14.564Z,32.42
2018-05-18T07:28:42.809Z,36.08
2018-05-18T07:31:10.267Z,33.83
2018-05-18T07:33:37.752Z,35.55
2018-05-18T07:36:05.271Z,31.02
2018-05-18T07:38:33.443Z,30.12
2018-05-18T07:41:00.939Z,32.67
2018-05-18T07:43:28.414Z,28.73
2018-05-18T07:45:56.671Z,33.35
2018-05-18T07:48:24.133Z,28.55
2018-05-18T07:50:52.395Z,28.85
2018-05-18T07:53:19.882Z,25.62
2018-05-18T07:55:47.372Z,31.25
2018-05-18T07:58:14.865Z,29.35
2018-05-18T08:00:42.366Z,27.42
2018-05-18T08:03:09.880Z,27.70
2018-05-18T08:05:37.385Z,26.33
2018-05-18T08:08:04.907Z,28.85
2018-05-18T08:10:32.400Z,25.50
2018-05-18T08:12:59.871Z,31.50
2018-05-18T08:15:27.353Z,27.25
2018-05-18T08:17:54.848Z,27.20
2018-05-18T08:20:23.102Z,28.42
2018-05-18T08:22:50.574Z,27.42
2018-05-18T08:25:18.842Z,24.95
2018-05-18T08:27:46.408Z,25.70
2018-05-18T08:30:14.589Z,27.20
2018-05-18T08:32:44.590Z,26.47
2018-05-18T08:35:12.062Z,21.53
2018-05-18T08:37:39.557Z,27.60
2018-05-18T08:40:07.028Z,22.53
2018-05-18T08:42:34.524Z,22.33
2018-05-18T08:45:02.022Z,21.90
2018-05-18T08:47:29.502Z,20.33
2018-05-18T08:49:57.037Z,21.40
2018-05-18T08:52:24.538Z,22.60
2018-05-18T08:54:52.033Z,23.07
2018-05-18T08:57:20.252Z,22.57
2018-05-18T08:59:47.860Z,21.33
2018-05-18T09:02:16.112Z,19.90
2018-05-18T09:04:43.609Z,21.80
2018-05-18T09:07:11.843Z,22.23
2018-05-18T09:09:39.325Z,21.50
2018-05-18T09:12:06.821Z,21.33
2018-05-18T09:14:34.276Z,21.27
2018-05-18T09:17:01.765Z,17.97
2018-05-18T09:19:29.248Z,22.47
2018-05-18T09:21:56.723Z,21.53
2018-05-18T09:24:24.953Z,19.57
2018-05-18T09:26:52.438Z,22.37
2018-05-18T09:29:20.043Z,19.50
2018-05-18T09:31:47.524Z,17.57
2018-05-18T09:34:15.025Z,17.37
2018-05-18T09:36:42.502Z,17.27
2018-05-18T09:39:09.980Z,16.63
2018-05-18T09:41:37.692Z,19.60
2018-05-18T09:44:05.187Z,13.47
2018-05-18T09:46:32.664Z,17.40
2018-05-18T09:49:00.157Z,15.47
2018-05-18T09:51:27.636Z,16.33
2018-05-18T09:53:55.884Z,17.50
2018-05-18T09:56:23.356Z,18.27
2018-05-18T09:58:50.866Z,15.70
2018-05-18T10:01:18.403Z,17.63
2018-05-18T10:03:45.897Z,23.03
2018-05-18T10:06:13.414Z,17.67
2018-05-18T10:08:40.973Z,16.63
2018-05-18T10:11:09.205Z,15.03
2018-05-18T10:13:36.720Z,17.37
2018-05-18T10:16:04.208Z,16.07
2018-05-18T10:18:31.687Z,13.43
2018-05-18T10:20:59.189Z,16.33
2018-05-18T10:23:27.451Z,18.37
2018-05-18T10:25:55.676Z,17.17
2018-05-18T10:28:26.123Z,15.43
2018-05-18T10:30:53.603Z,18.07
2018-05-18T10:33:21.088Z,14.60
2018-05-18T10:35:48.539Z,14.70
2018-05-18T10:38:16.076Z,15.00
2018-05-18T10:40:44.343Z,15.13
2018-05-18T10:43:12.719Z,11.77
2018-05-18T10:45:40.173Z,14.67
2018-05-18T10:48:07.644Z,17.97
2018-05-18T10:50:35.112Z,15.47
2018-05-18T10:53:03.388Z,17.80
2018-05-18T10:55:31.651Z,13.83
2018-05-18T10:57:59.128Z,13.10
2018-05-18T11:00:27.369Z,14.30
2018-05-18T11:02:54.842Z,15.57
2018-05-18T11:05:22.363Z,18.50
2018-05-18T11:07:50.579Z,12.73
2018-05-18T11:10:18.040Z,15.73
2018-05-18T11:12:45.501Z,13.03
2018-05-18T11:15:12.995Z,13.20
2018-05-18T11:17:40.569Z,10.67
2018-05-18T11:20:08.141Z,13.67
2018-05-18T11:22:35.611Z,12.97
2018-05-18T11:25:03.101Z,12.33
2018-05-18T11:27:31.359Z,16.40
2018-05-18T11:29:58.820Z,12.10
2018-05-18T11:32:26.293Z,11.67
2018-05-18T11:34:54.553Z,13.67
2018-05-18T11:37:22.032Z,17.67
2018-05-18T11:39:50.275Z,13.77
2018-05-18T11:42:17.755Z,13.13
2018-05-18T11:44:45.211Z,9.10
2018-05-18T11:47:13.451Z,12.87
2018-05-18T11:49:40.936Z,13.40
2018-05-18T11:52:08.387Z,11.70
2018-05-18T11:54:35.913Z,11.90
2018-05-18T11:57:03.333Z,10.00
2018-05-18T11:59:31.209Z,10.47
2018-05-18T12:01:58.686Z,13.37
2018-05-18T12:04:26.162Z,11.70
2018-05-18T12:06:53.646Z,9.50
2018-05-18T12:09:21.096Z,13.27
2018-05-18T12:11:48.593Z,9.20
2018-05-18T12:14:16.061Z,11.70
2018-05-18T12:16:43.557Z,11.43
2018-05-18T12:19:11.024Z,11.23
2018-05-18T12:21:38.488Z,12.30
2018-05-18T12:24:05.969Z,13.47
2018-05-18T12:26:34.213Z,13.43
2018-05-18T12:29:01.704Z,12.40
2018-05-18T12:31:29.970Z,12.80
2018-05-18T12:33:57.439Z,8.13
2018-05-18T12:36:24.933Z,12.73
2018-05-18T12:38:52.409Z,8.77
2018-05-18T12:41:19.865Z,11.87
2018-05-18T12:43:47.370Z,9.07
2018-05-18T12:46:14.861Z,11.67
2018-05-18T12:48:42.332Z,7.70
2018-05-18T12:51:09.799Z,9.10
2018-05-18T12:53:37.360Z,11.17
2018-05-18T12:56:04.846Z,11.23
2018-05-18T12:58:34.221Z,9.27
2018-05-18T13:01:01.723Z,10.87
2018-05-18T13:03:30.007Z,9.63
2018-05-18T13:05:57.485Z,10.07
2018-05-18T13:08:24.964Z,11.93
2018-05-18T13:10:53.228Z,7.20
2018-05-18T13:13:20.868Z,11.37
2018-05-18T13:15:48.445Z,10.70
2018-05-18T13:18:15.848Z,10.73
2018-05-18T13:20:43.320Z,10.67
2018-05-18T13:23:11.557Z,8.50
2018-05-18T13:25:39.016Z,9.23
2018-05-18T13:28:06.566Z,8.17
2018-05-18T13:30:34.091Z,8.97
2018-05-18T13:33:01.487Z,8.80
2018-05-18T13:35:28.954Z,10.97
2018-05-18T13:37:56.977Z,9.20
2018-05-18T13:40:24.437Z,10.93
2018-05-18T13:42:51.928Z,10.20
2018-05-18T13:45:19.389Z,10.70
2018-05-18T13:47:46.880Z,11.90
2018-05-18T13:50:15.121Z,8.27
2018-05-18T13:52:42.668Z,9.43
2018-05-18T13:55:10.117Z,10.63
2018-05-18T13:57:37.596Z,7.70
2018-05-18T14:00:05.049Z,8.30
2018-05-18T14:02:32.508Z,8.07
2018-05-18T14:04:59.986Z,8.60
2018-05-18T14:07:27.461Z,9.63
2018-05-18T14:09:54.992Z,6.73
2018-05-18T14:12:22.488Z,7.73
2018-05-18T14:14:50.009Z,11.23
2018-05-18T14:17:18.632Z,12.23
2018-05-18T14:19:46.123Z,12.77
2018-05-18T14:22:13.583Z,9.77
2018-05-18T14:24:41.063Z,7.23
2018-05-18T14:27:08.555Z,10.67
2018-05-18T14:29:38.719Z,10.43
2018-05-18T14:32:06.167Z,9.77
2018-05-18T14:34:33.661Z,9.13
2018-05-18T14:37:01.149Z,7.70
2018-05-18T14:39:35.288Z,8.83
2018-05-18T14:42:02.994Z,9.80
2018-05-18T14:44:30.452Z,8.13
2018-05-18T14:46:57.925Z,9.90
2018-05-18T14:49:25.459Z,11.33
2018-05-18T14:51:52.982Z,7.50
2018-05-18T14:54:20.464Z,10.60
2018-05-18T14:56:47.940Z,8.63
2018-05-18T14:59:15.527Z,8.40
2018-05-18T15:01:43.390Z,9.20
2018-05-18T15:04:10.840Z,8.77
2018-05-18T15:06:38.317Z,11.13
2018-05-18T15:09:05.794Z,7.67
2018-05-18T15:11:33.272Z,9.80
2018-05-18T15:14:00.846Z,8.87
2018-05-18T15:16:28.297Z,8.30
2018-05-18T15:18:56.527Z,10.30
2018-05-18T15:21:23.986Z,8.70
2018-05-18T15:23:51.475Z,8.63
2018-05-18T15:26:19.703Z,9.87
2018-05-18T15:28:47.213Z,9.43
2018-05-18T15:31:15.466Z,13.80
2018-05-18T15:33:42.956Z,11.23
2018-05-18T15:36:10.500Z,9.17
2018-05-18T15:38:38.757Z,8.47
2018-05-18T15:41:06.221Z,7.67
2018-05-18T15:43:33.714Z,7.27
2018-05-18T15:46:01.201Z,7.70
2018-05-18T15:48:28.681Z,10.00
2018-05-18T15:50:56.181Z,7.60
2018-05-18T15:53:23.672Z,10.13
2018-05-18T15:55:51.128Z,9.00
2018-05-18T15:58:18.617Z,10.13
2018-05-18T16:00:46.085Z,9.97
2018-05-18T16:03:13.645Z,10.30
2018-05-18T16:05:41.123Z,5.50
2018-05-18T16:08:09.397Z,10.53
2018-05-18T16:10:37.642Z,9.67
2018-05-18T16:13:05.108Z,6.33
2018-05-18T16:15:32.595Z,9.67
2018-05-18T16:18:00.087Z,9.77
2018-05-18T16:20:27.572Z,6.33
2018-05-18T16:22:55.061Z,12.27
2018-05-18T16:25:23.299Z,8.50
2018-05-18T16:27:50.797Z,6.60
2018-05-18T16:30:18.276Z,7.40
2018-05-18T16:32:45.760Z,7.53
2018-05-18T16:35:13.255Z,7.63
2018-05-18T16:37:41.496Z,8.53
2018-05-18T16:40:09.051Z,8.50
2018-05-18T16:42:36.515Z,9.20
2018-05-18T16:45:03.974Z,8.07
2018-05-18T16:47:31.478Z,6.27
2018-05-18T16:49:59.709Z,7.63
2018-05-18T16:52:27.173Z,8.60
2018-05-18T16:54:54.624Z,6.57
2018-05-18T16:57:22.118Z,8.87
2018-05-18T16:59:50.390Z,8.93
2018-05-18T17:02:18.639Z,10.17
2018-05-18T17:04:46.096Z,9.13
2018-05-18T17:07:13.576Z,9.43
2018-05-18T17:09:41.821Z,9.70
2018-05-18T17:12:09.372Z,7.73
2018-05-18T17:14:36.856Z,7.53
2018-05-18T17:17:04.317Z,5.97
2018-05-18T17:19:31.786Z,8.50
2018-05-18T17:22:00.019Z,9.83
2018-05-18T17:24:27.526Z,6.43
2018-05-18T17:26:55.819Z,7.30
2018-05-18T17:29:23.732Z,11.23
2018-05-18T17:31:51.227Z,7.20
2018-05-18T17:34:19.456Z,11.63
2018-05-18T17:36:46.929Z,7.40
2018-05-18T17:39:14.408Z,7.20
2018-05-18T17:41:41.881Z,10.60
2018-05-18T17:44:10.106Z,8.00
2018-05-18T17:46:37.597Z,5.07
2018-05-18T17:49:05.065Z,7.17
2018-05-18T17:51:33.316Z,9.27
2018-05-18T17:54:00.834Z,6.13
2018-05-18T17:56:28.343Z,7.17
2018-05-18T17:58:55.816Z,9.70
2018-05-18T18:01:24.124Z,11.80
2018-05-18T18:03:51.526Z,9.20
2018-05-18T18:06:18.968Z,8.13
2018-05-18T18:08:46.419Z,7.27
2018-05-18T18:11:13.917Z,9.60
2018-05-18T18:13:42.152Z,6.63
2018-05-18T18:16:09.627Z,7.33
2018-05-18T18:18:37.976Z,9.97
2018-05-18T18:21:05.482Z,8.63
2018-05-18T18:23:32.948Z,7.60
2018-05-18T18:26:01.168Z,8.93
2018-05-18T18:28:28.641Z,10.07
2018-05-18T18:30:56.111Z,5.53
2018-05-18T18:33:23.576Z,9.17
2018-05-18T18:35:51.064Z,10.67
2018-05-18T18:38:18.561Z,8.97
2018-05-18T18:40:46.037Z,9.43
2018-05-18T18:43:14.087Z,10.50
2018-05-18T18:45:41.570Z,6.73
2018-05-18T18:48:09.025Z,10.10
2018-05-18T18:50:36.476Z,10.03
2018-05-18T18:53:03.964Z,8.43
2018-05-18T18:55:32.230Z,6.17
2018-05-18T18:57:59.704Z,8.20
2018-05-18T19:00:27.956Z,7.97
2018-05-18T19:02:55.404Z,9.40
2018-05-18T19:05:22.898Z,9.83
2018-05-18T19:07:51.139Z,9.13
2018-05-18T19:10:18.621Z,5.87
2018-05-18T19:12:46.888Z,10.37
2018-05-18T19:15:14.344Z,13.70
2018-05-18T19:17:41.818Z,8.47
2018-05-18T19:20:10.008Z,7.90
2018-05-18T19:22:37.492Z,10.07
2018-05-18T19:25:05.001Z,10.07
2018-05-18T19:27:33.212Z,5.30
2018-05-18T19:30:00.705Z,9.27
2018-05-18T19:32:28.170Z,8.83
2018-05-18T19:34:55.664Z,6.63
2018-05-18T19:37:23.161Z,8.37
2018-05-18T19:39:50.612Z,6.10
2018-05-18T19:42:18.109Z,6.17
2018-05-18T19:44:45.594Z,10.37
2018-05-18T19:47:13.816Z,9.80
2018-05-18T19:49:41.336Z,5.70
2018-05-18T19:52:08.805Z,5.93
2018-05-18T19:54:36.263Z,10.93
2018-05-18T19:57:03.759Z,7.03
2018-05-18T19:59:31.249Z,9.03
2018-05-18T20:01:59.484Z,8.63
2018-05-18T20:04:26.946Z,6.10
2018-05-18T20:06:54.442Z,10.53
2018-05-18T20:09:22.660Z,8.20
2018-05-18T20:11:50.160Z,8.83
2018-05-18T20:14:17.647Z,9.63
2018-05-18T20:16:45.108Z,8.87
2018-05-18T20:19:12.569Z,10.93
2018-05-18T20:21:40.026Z,7.33
2018-05-18T20:24:07.490Z,8.60
2018-05-18T20:26:34.993Z,6.33
2018-05-18T20:29:02.477Z,8.50
2018-05-18T20:31:30.744Z,5.13
2018-05-18T20:33:59.003Z,6.53
2018-05-18T20:36:26.494Z,8.67
2018-05-18T20:38:54.735Z,7.70
2018-05-18T20:41:22.196Z,8.20
2018-05-18T20:43:49.683Z,8.17
2018-05-18T20:46:17.928Z,6.27
2018-05-18T20:48:45.403Z,8.35
2018-05-18T20:51:13.628Z,8.13
2018-05-18T20:53:41.100Z,8.70
2018-05-18T20:56:08.593Z,8.07
2018-05-18T20:58:36.139Z,7.67
2018-05-18T21:01:04.318Z,7.43
2018-05-18T21:03:31.821Z,8.13
2018-05-18T21:06:00.027Z,8.90
2018-05-18T21:08:27.493Z,5.50
2018-05-18T21:10:54.999Z,8.13
2018-05-18T21:13:22.495Z,10.90
2018-05-18T21:15:49.956Z,9.87
2018-05-18T21:18:17.437Z,9.80
2018-05-18T21:20:44.920Z,8.13
2018-05-18T21:23:13.140Z,10.17
2018-05-18T21:25:40.606Z,9.00
2018-05-18T21:28:08.128Z,9.35
2018-05-18T21:30:35.694Z,10.30
2018-05-18T21:33:03.101Z,11.25
2018-05-18T21:35:30.556Z,7.13
2018-05-18T21:37:58.833Z,11.52
2018-05-18T21:40:26.299Z,8.60
2018-05-18T21:42:54.543Z,8.73
2018-05-18T21:45:22.029Z,13.07
2018-05-18T21:47:50.280Z,9.15
2018-05-18T21:50:17.737Z,10.18
2018-05-18T21:52:45.223Z,7.03
2018-05-18T21:55:13.486Z,7.90
2018-05-18T21:57:40.942Z,7.97
2018-05-18T22:00:08.439Z,8.88
2018-05-18T22:02:35.904Z,8.98
2018-05-18T22:05:03.410Z,10.53
2018-05-18T22:07:30.852Z,7.68
2018-05-18T22:09:58.344Z,9.40
2018-05-18T22:12:26.572Z,8.60
2018-05-18T22:14:54.048Z,10.38
2018-05-18T22:17:21.510Z,8.57
2018-05-18T22:19:48.971Z,9.65
2018-05-18T22:22:16.527Z,10.63
2018-05-18T22:24:43.929Z,9.50
2018-05-18T22:27:11.420Z,10.13
2018-05-18T22:29:38.926Z,7.10
2018-05-18T22:32:07.169Z,12.48
2018-05-18T22:34:34.652Z,10.30
2018-05-18T22:37:02.115Z,6.75
2018-05-18T22:39:30.354Z,9.88
2018-05-18T22:41:57.823Z,9.20
2018-05-18T22:44:25.327Z,11.20
2018-05-18T22:46:53.559Z,8.82
2018-05-18T22:49:21.050Z,7.53
2018-05-18T22:51:49.331Z,8.85
2018-05-18T22:54:17.578Z,8.43
2018-05-18T22:56:45.072Z,9.38
2018-05-18T22:59:12.564Z,14.68
2018-05-18T23:01:40.077Z,7.30
2018-05-18T23:04:08.309Z,9.10
2018-05-18T23:06:35.760Z,14.15
2018-05-18T23:09:03.239Z,11.15
2018-05-18T23:11:30.735Z,10.30
2018-05-18T23:13:58.206Z,10.40
2018-05-18T23:16:25.692Z,7.00
2018-05-18T23:18:53.174Z,11.02
2018-05-18T23:21:20.659Z,9.50
2018-05-18T23:23:48.117Z,7.62
2018-05-18T23:26:15.567Z,9.15
2018-05-18T23:28:43.044Z,8.95
2018-05-18T23:31:10.550Z,8.40
2018-05-18T23:33:38.025Z,7.43
2018-05-18T23:36:05.502Z,7.28
2018-05-18T23:38:33.733Z,9.10
2018-05-18T23:41:01.184Z,8.30
2018-05-18T23:43:28.675Z,6.18
2018-05-18T23:45:56.920Z,12.07
2018-05-18T23:48:24.423Z,11.60
2018-05-18T23:50:52.674Z,11.15
2018-05-18T23:53:21.029Z,6.53
2018-05-18T23:55:48.512Z,8.82
2018-05-18T23:58:16.018Z,10.57
